Time;durP1;ratioP1;P1;durP2;ratioP2;P2;SDS_P1;SDS_P2;PMS_P1;PMS_P2;Temp;Humidity;BMP_temperature;BMP_pressure;BME280_temperature;BME280_humidity;BME280_pressure;Samples;Min_cycle;Max_cycle;Signal;HPM_P1;HPM_P2
2023/01/01 00:00:00;;;;;;;;;;;16.80;95.90;;;;;;4992588;28;19912;-60
2023/01/01 00:02:26;;;;;;;;;;;16.80;96.10;;;;;;4993129;28;20167;-59
2023/01/01 00:04:52;;;;;;;;;;;16.70;95.80;;;;;;4992808;28;19924;-59
2023/01/01 00:07:17;;;;;;;;;;;16.70;95.80;;;;;;4992713;28;19960;-59
2023/01/01 00:12:27;;;;;;;;;;;16.70;95.80;;;;;;4992464;28;19957;-60
2023/01/01 00:14:52;;;;;;;;;;;16.70;95.90;;;;;;4992660;28;19917;-60
2023/01/01 00:17:18;;;;;;;;;;;16.60;95.80;;;;;;4992814;28;19909;-60
2023/01/01 00:19:43;;;;;;;;;;;16.60;95.80;;;;;;4992344;28;19909;-60
2023/01/01 00:22:09;;;;;;;;;;;16.60;95.50;;;;;;4992480;28;19957;-60
2023/01/01 00:24:35;;;;;;;;;;;16.70;95.30;;;;;;4992465;28;19910;-61
2023/01/01 00:27:00;;;;;;;;;;;16.70;95.60;;;;;;4992125;28;20012;-61
2023/01/01 00:29:26;;;;;;;;;;;16.70;95.20;;;;;;4974788;28;19910;-61
2023/01/01 00:31:52;;;;;;;;;;;16.70;95.30;;;;;;4992455;28;20313;-61
2023/01/01 00:34:18;;;;;;;;;;;16.60;95.70;;;;;;4992219;28;19964;-60
2023/01/01 00:36:43;;;;;;;;;;;16.60;95.30;;;;;;4992253;28;20095;-60
2023/01/01 00:39:09;;;;;;;;;;;16.70;95.20;;;;;;4974661;28;19916;-61
2023/01/01 00:41:34;;;;;;;;;;;16.60;95.40;;;;;;4992210;28;19910;-60
2023/01/01 00:44:00;;;;;;;;;;;16.60;95.00;;;;;;4992365;28;19910;-61
2023/01/01 00:46:26;;;;;;;;;;;16.60;94.90;;;;;;4992004;28;20393;-61
2023/01/01 00:48:51;;;;;;;;;;;16.60;94.70;;;;;;4991779;28;20433;-61
2023/01/01 00:51:17;;;;;;;;;;;16.70;94.40;;;;;;4991949;28;19996;-61
2023/01/01 00:53:42;;;;;;;;;;;16.60;94.70;;;;;;4991806;28;20362;-60
2023/01/01 00:56:08;;;;;;;;;;;16.60;94.70;;;;;;4991858;28;19909;-61
2023/01/01 00:58:34;;;;;;;;;;;16.50;94.50;;;;;;4991852;28;20001;-61
2023/01/01 01:00:59;;;;;;;;;;;16.50;94.10;;;;;;4991905;28;19910;-61
2023/01/01 01:03:28;;;;;;;;;;;16.50;94.40;;;;;;4991776;28;20393;-60
2023/01/01 01:05:58;;;;;;;;;;;16.50;93.80;;;;;;4991806;28;19913;-60
2023/01/01 01:08:24;;;;;;;;;;;16.50;93.40;;;;;;4991619;28;19921;-60
2023/01/01 01:10:50;;;;;;;;;;;16.50;93.60;;;;;;4991481;28;20291;-60
2023/01/01 01:13:16;;;;;;;;;;;16.60;93.20;;;;;;4991783;28;19933;-60
2023/01/01 01:15:41;;;;;;;;;;;16.50;93.10;;;;;;4991896;28;19910;-60
2023/01/01 01:18:07;;;;;;;;;;;16.50;93.20;;;;;;4991628;28;20359;-60
2023/01/01 01:20:33;;;;;;;;;;;16.60;92.30;;;;;;4991496;28;19910;-60
2023/01/01 01:22:59;;;;;;;;;;;16.50;92.10;;;;;;4994749;28;20461;-60
2023/01/01 01:25:25;;;;;;;;;;;16.50;91.60;;;;;;4995762;28;20004;-60
2023/01/01 01:27:50;;;;;;;;;;;16.50;91.30;;;;;;4995492;28;20358;-60
2023/01/01 01:30:16;;;;;;;;;;;16.60;90.80;;;;;;4995428;28;19909;-60
2023/01/01 01:32:41;;;;;;;;;;;16.60;90.60;;;;;;4995496;28;19921;-60
2023/01/01 01:35:07;;;;;;;;;;;16.60;90.10;;;;;;4995604;28;19917;-60
2023/01/01 01:37:33;;;;;;;;;;;16.50;90.30;;;;;;4995374;28;20331;-60
2023/01/01 01:39:58;;;;;;;;;;;16.50;90.20;;;;;;4995295;28;19948;-60
2023/01/01 01:42:24;;;;;;;;;;;16.50;90.40;;;;;;4995470;28;19910;-60
2023/01/01 01:44:52;;;;;;;;;;;16.40;90.50;;;;;;4995479;28;19940;-61
2023/01/01 01:47:20;;;;;;;;;;;16.40;90.90;;;;;;4995305;28;19914;-60
2023/01/01 01:49:46;;;;;;;;;;;16.40;91.00;;;;;;4995111;28;19910;-60
2023/01/01 01:52:13;;;;;;;;;;;16.30;91.20;;;;;;4977916;28;19913;-60
2023/01/01 01:54:38;;;;;;;;;;;16.30;91.20;;;;;;4995130;28;19913;-60
2023/01/01 01:57:06;;;;;;;;;;;16.30;91.70;;;;;;4995385;28;19910;-60
2023/01/01 01:59:34;;;;;;;;;;;16.20;91.60;;;;;;4995066;28;19909;-60
2023/01/01 02:02:00;;;;;;;;;;;16.10;91.60;;;;;;4995068;28;19997;-60
2023/01/01 02:04:26;;;;;;;;;;;16.00;91.80;;;;;;4995009;28;19917;-60
2023/01/01 02:06:53;;;;;;;;;;;16.00;91.60;;;;;;4994865;28;19906;-59
2023/01/01 02:09:19;;;;;;;;;;;16.00;91.60;;;;;;4994780;28;20394;-60
2023/01/01 02:11:45;;;;;;;;;;;16.00;92.10;;;;;;4995012;28;19910;-60
2023/01/01 02:14:10;;;;;;;;;;;15.90;91.60;;;;;;4994915;28;19914;-59
2023/01/01 02:16:44;;;;;;;;;;;16.00;91.60;;;;;;4994727;28;19909;-59
2023/01/01 02:19:10;;;;;;;;;;;16.00;91.50;;;;;;4995137;28;20056;-60
2023/01/01 02:21:54;;;;;;;;;;;15.90;91.50;;;;;;4994776;28;20000;-60
2023/01/01 02:24:20;;;;;;;;;;;15.90;91.60;;;;;;4994727;28;19937;-59
2023/01/01 02:26:51;;;;;;;;;;;15.80;91.50;;;;;;4994762;28;19910;-59
2023/01/01 02:29:21;;;;;;;;;;;15.90;91.30;;;;;;4995067;28;19960;-60
2023/01/01 02:31:55;;;;;;;;;;;15.80;91.60;;;;;;4995106;28;19916;-60
2023/01/01 02:34:23;;;;;;;;;;;15.80;91.60;;;;;;4993700;28;19913;-59
2023/01/01 02:36:50;;;;;;;;;;;15.70;91.80;;;;;;4976912;28;19963;-60
2023/01/01 02:39:18;;;;;;;;;;;15.70;91.80;;;;;;4994501;28;20294;-60
2023/01/01 02:41:45;;;;;;;;;;;15.80;91.80;;;;;;4994457;28;19910;-60
2023/01/01 02:44:11;;;;;;;;;;;15.80;91.90;;;;;;4994396;28;19910;-60
2023/01/01 02:46:37;;;;;;;;;;;15.80;92.10;;;;;;4994179;28;19909;-60
2023/01/01 02:49:03;;;;;;;;;;;15.70;91.90;;;;;;4994138;28;20423;-60
2023/01/01 02:51:54;;;;;;;;;;;15.70;92.20;;;;;;4994395;28;19910;-60
2023/01/01 02:54:46;;;;;;;;;;;15.70;92.30;;;;;;5041128;22;20019;-53
2023/01/01 02:57:34;;;;;;;;;;;15.60;92.20;;;;;;5049348;28;19909;-54
2023/01/01 03:00:26;;;;;;;;;;;15.60;92.40;;;;;;5053563;28;19912;-53
2023/01/01 03:03:10;;;;;;;;;;;15.60;92.70;;;;;;5053385;28;19924;-53
2023/01/01 03:08:32;;;;;;;;;;;15.40;93.00;;;;;;5053063;28;19919;-51
2023/01/01 03:11:03;;;;;;;;;;;15.40;92.90;;;;;;5053279;28;19916;-52
2023/01/01 03:13:29;;;;;;;;;;;15.40;93.00;;;;;;5053248;28;19944;-52
2023/01/01 03:15:58;;;;;;;;;;;15.30;93.30;;;;;;5053184;28;19948;-52
2023/01/01 03:18:38;;;;;;;;;;;15.30;93.60;;;;;;5052794;28;19951;-53
2023/01/01 03:21:05;;;;;;;;;;;15.30;93.30;;;;;;5053069;28;19909;-53
2023/01/01 03:23:34;;;;;;;;;;;15.30;93.60;;;;;;5053304;28;19917;-52
2023/01/01 03:26:03;;;;;;;;;;;15.30;93.70;;;;;;5053085;28;19909;-52
2023/01/01 03:28:32;;;;;;;;;;;15.40;93.50;;;;;;5052632;28;19916;-53
2023/01/01 03:30:59;;;;;;;;;;;15.40;93.60;;;;;;5052710;28;19913;-52
2023/01/01 03:33:30;;;;;;;;;;;15.40;94.00;;;;;;5052869;28;20323;-54
2023/01/01 03:35:58;;;;;;;;;;;15.40;94.00;;;;;;5052809;28;19912;-51
2023/01/01 03:38:34;;;;;;;;;;;15.40;93.80;;;;;;5052544;28;19916;-55
2023/01/01 03:41:02;;;;;;;;;;;15.40;94.20;;;;;;5052719;28;20380;-52
2023/01/01 03:43:33;;;;;;;;;;;15.40;94.20;;;;;;5052565;28;19913;-52
2023/01/01 03:46:00;;;;;;;;;;;15.30;94.20;;;;;;5052579;28;20324;-54
2023/01/01 03:48:26;;;;;;;;;;;15.30;94.60;;;;;;5052152;28;19919;-53
2023/01/01 03:51:01;;;;;;;;;;;15.30;94.60;;;;;;5052278;28;19909;-53
2023/01/01 03:53:36;;;;;;;;;;;15.30;94.80;;;;;;5052299;28;20281;-52
2023/01/01 03:56:22;;;;;;;;;;;15.30;94.80;;;;;;5052419;28;19967;-52
2023/01/01 03:59:20;;;;;;;;;;;15.30;94.80;;;;;;5037920;28;19908;-51
2023/01/01 04:01:49;;;;;;;;;;;15.20;95.10;;;;;;5007869;28;20000;-51
2023/01/01 04:04:15;;;;;;;;;;;15.30;95.50;;;;;;5052156;28;19912;-52
2023/01/01 04:06:41;;;;;;;;;;;15.30;95.50;;;;;;5052056;28;19908;-52
2023/01/01 04:09:09;;;;;;;;;;;15.30;95.90;;;;;;5051903;28;19919;-53
2023/01/01 04:14:34;;;;;;;;;;;15.10;96.40;;;;;;5052081;28;20281;-52
2023/01/01 04:17:00;;;;;;;;;;;15.20;96.60;;;;;;5051835;28;19909;-53
2023/01/01 04:19:26;;;;;;;;;;;15.10;96.70;;;;;;5051996;28;20003;-53
2023/01/01 04:21:52;;;;;;;;;;;15.10;96.90;;;;;;5052124;28;19940;-53
2023/01/01 04:24:17;;;;;;;;;;;15.10;97.10;;;;;;5051842;28;20424;-53
2023/01/01 04:26:43;;;;;;;;;;;15.10;97.00;;;;;;5051590;28;19931;-55
2023/01/01 04:29:08;;;;;;;;;;;15.10;97.50;;;;;;5051498;28;19958;-53
2023/01/01 04:31:34;;;;;;;;;;;15.10;97.50;;;;;;5051781;28;19989;-52
2023/01/01 04:34:00;;;;;;;;;;;15.10;97.70;;;;;;5051932;28;19962;-52
2023/01/01 04:36:26;;;;;;;;;;;15.00;97.80;;;;;;5051613;28;20317;-53
2023/01/01 04:38:51;;;;;;;;;;;15.00;97.80;;;;;;5051502;28;20281;-52
2023/01/01 04:41:17;;;;;;;;;;;15.10;97.70;;;;;;5051591;28;20002;-53
2023/01/01 04:43:45;;;;;;;;;;;15.10;97.90;;;;;;5051474;28;20003;-54
2023/01/01 04:46:11;;;;;;;;;;;15.10;98.10;;;;;;5051790;28;20003;-52
2023/01/01 04:48:36;;;;;;;;;;;15.00;98.00;;;;;;5051135;28;20376;-52
2023/01/01 04:51:03;;;;;;;;;;;15.10;98.30;;;;;;5051652;28;19909;-53
2023/01/01 04:53:32;;;;;;;;;;;15.10;98.20;;;;;;5050058;28;20058;-54
2023/01/01 04:56:04;;;;;;;;;;;15.00;98.50;;;;;;5051212;28;19909;-50
2023/01/01 04:58:30;;;;;;;;;;;15.10;98.40;;;;;;5050867;28;19917;-53
2023/01/01 05:00:56;;;;;;;;;;;15.10;98.60;;;;;;5051620;28;19909;-49
2023/01/01 05:03:21;;;;;;;;;;;15.10;98.50;;;;;;5051332;28;19909;-52
2023/01/01 05:05:49;;;;;;;;;;;15.10;98.50;;;;;;5051273;28;20357;-52
2023/01/01 05:08:14;;;;;;;;;;;15.10;98.60;;;;;;5051089;28;20335;-53
2023/01/01 05:10:40;;;;;;;;;;;15.10;98.50;;;;;;5050938;28;19908;-51
2023/01/01 05:13:07;;;;;;;;;;;15.10;98.80;;;;;;5051000;28;19909;-53
2023/01/01 05:15:34;;;;;;;;;;;15.00;98.90;;;;;;5051137;28;19905;-51
2023/01/01 05:18:00;;;;;;;;;;;15.00;99.00;;;;;;5051329;28;19916;-50
2023/01/01 05:20:25;;;;;;;;;;;15.00;99.00;;;;;;5051100;28;19909;-53
2023/01/01 05:22:51;;;;;;;;;;;15.00;99.10;;;;;;5051135;28;19909;-53
2023/01/01 05:25:16;;;;;;;;;;;15.00;99.30;;;;;;5051099;28;20413;-51
2023/01/01 05:27:42;;;;;;;;;;;15.00;99.30;;;;;;5050778;28;19920;-49
2023/01/01 05:30:08;;;;;;;;;;;15.00;99.30;;;;;;5051084;28;19940;-54
2023/01/01 05:32:35;;;;;;;;;;;15.00;99.60;;;;;;5051001;28;19932;-53
2023/01/01 05:35:01;;;;;;;;;;;15.00;99.70;;;;;;5051026;28;20331;-52
2023/01/01 05:37:26;;;;;;;;;;;14.90;99.70;;;;;;5050909;28;19908;-53
2023/01/01 05:39:52;;;;;;;;;;;15.00;99.80;;;;;;5050664;28;19995;-51
2023/01/01 05:42:18;;;;;;;;;;;14.90;99.90;;;;;;5050891;28;20398;-53
2023/01/01 05:44:44;;;;;;;;;;;14.90;99.90;;;;;;5050807;28;19919;-52
2023/01/01 05:47:10;;;;;;;;;;;14.80;99.90;;;;;;5050453;28;19995;-52
2023/01/01 05:49:35;;;;;;;;;;;14.90;99.90;;;;;;5050541;28;19915;-53
2023/01/01 05:52:01;;;;;;;;;;;14.90;99.90;;;;;;5050856;28;19963;-51
2023/01/01 05:54:27;;;;;;;;;;;14.90;99.90;;;;;;5050591;28;19913;-55
2023/01/01 05:56:52;;;;;;;;;;;14.90;99.90;;;;;;5050585;28;19927;-54
2023/01/01 05:59:18;;;;;;;;;;;14.90;99.90;;;;;;5050538;28;19909;-53
2023/01/01 06:01:43;;;;;;;;;;;14.90;99.90;;;;;;5050803;28;19995;-53
2023/01/01 06:04:09;;;;;;;;;;;14.80;99.90;;;;;;5050606;28;19908;-52
2023/01/01 06:06:34;;;;;;;;;;;14.80;99.90;;;;;;5050626;28;19912;-53
2023/01/01 06:09:01;;;;;;;;;;;14.70;99.90;;;;;;5051796;28;19920;-54
2023/01/01 06:11:27;;;;;;;;;;;14.70;99.90;;;;;;5054287;28;20277;-53
2023/01/01 06:13:54;;;;;;;;;;;14.70;99.90;;;;;;5054423;28;19909;-51
2023/01/01 06:16:20;;;;;;;;;;;14.60;99.90;;;;;;5054134;28;19909;-52
2023/01/01 06:18:46;;;;;;;;;;;14.60;99.90;;;;;;5054488;28;20050;-53
2023/01/01 06:21:13;;;;;;;;;;;14.60;99.90;;;;;;5054289;28;20375;-50
2023/01/01 06:23:38;;;;;;;;;;;14.60;99.90;;;;;;5053963;28;19915;-53
2023/01/01 06:26:08;;;;;;;;;;;14.60;99.90;;;;;;5054332;28;19909;-52
2023/01/01 06:28:33;;;;;;;;;;;14.60;99.90;;;;;;5053871;28;19913;-50
2023/01/01 06:31:03;;;;;;;;;;;14.60;99.90;;;;;;5054072;28;19955;-52
2023/01/01 06:33:29;;;;;;;;;;;14.60;99.90;;;;;;5053892;28;20350;-52
2023/01/01 06:35:54;;;;;;;;;;;14.60;99.90;;;;;;5054009;28;19923;-52
2023/01/01 06:38:20;;;;;;;;;;;14.60;99.90;;;;;;5053794;28;19909;-50
2023/01/01 06:41:05;;;;;;;;;;;14.60;99.90;;;;;;5053851;28;19908;-54
2023/01/01 06:43:32;;;;;;;;;;;14.60;99.90;;;;;;5053592;28;20348;-53
2023/01/01 06:46:10;;;;;;;;;;;14.60;99.90;;;;;;5053759;28;20365;-54
2023/01/01 06:48:35;;;;;;;;;;;14.60;99.90;;;;;;5053307;28;19913;-53
2023/01/01 06:51:06;;;;;;;;;;;14.70;99.90;;;;;;5053462;28;19962;-50
2023/01/01 06:53:32;;;;;;;;;;;14.60;99.90;;;;;;5053511;28;19923;-49
2023/01/01 06:55:57;;;;;;;;;;;14.60;99.90;;;;;;5052394;28;20003;-52
2023/01/01 06:58:23;;;;;;;;;;;14.70;99.90;;;;;;5053346;28;20341;-50
2023/01/01 07:00:48;;;;;;;;;;;14.70;99.90;;;;;;5053247;28;19908;-51
2023/01/01 07:03:14;;;;;;;;;;;14.60;99.90;;;;;;5053298;28;19909;-50
2023/01/01 07:05:40;;;;;;;;;;;14.60;99.90;;;;;;5053578;28;19913;-50
2023/01/01 07:08:05;;;;;;;;;;;14.60;99.90;;;;;;5053212;28;19913;-52
2023/01/01 07:10:31;;;;;;;;;;;14.50;99.90;;;;;;5053049;28;19926;-50
2023/01/01 07:12:56;;;;;;;;;;;14.50;99.90;;;;;;5053199;28;19917;-51
2023/01/01 07:15:22;;;;;;;;;;;14.50;99.90;;;;;;5053247;28;19923;-49
2023/01/01 07:17:47;;;;;;;;;;;14.50;99.90;;;;;;5052914;28;20308;-48
2023/01/01 07:20:13;;;;;;;;;;;14.60;99.90;;;;;;5052494;28;19962;-52
2023/01/01 07:22:39;;;;;;;;;;;14.60;99.90;;;;;;5052995;28;20373;-51
2023/01/01 07:25:05;;;;;;;;;;;14.60;99.90;;;;;;5053397;28;20585;-53
2023/01/01 07:27:31;;;;;;;;;;;14.50;99.90;;;;;;5052671;28;20335;-49
2023/01/01 07:29:56;;;;;;;;;;;14.50;99.90;;;;;;5052774;28;19916;-54
2023/01/01 07:32:22;;;;;;;;;;;14.50;99.90;;;;;;5052858;28;19909;-53
2023/01/01 07:34:47;;;;;;;;;;;14.50;99.90;;;;;;5052732;28;20001;-53
2023/01/01 07:37:13;;;;;;;;;;;14.30;99.90;;;;;;5052748;28;20003;-52
2023/01/01 07:39:38;;;;;;;;;;;14.20;99.90;;;;;;5052591;28;19978;-53
2023/01/01 07:42:04;;;;;;;;;;;14.10;99.90;;;;;;5052723;28;19913;-50
2023/01/01 07:44:29;;;;;;;;;;;14.10;99.90;;;;;;5052774;28;20390;-52
2023/01/01 07:47:06;;;;;;;;;;;14.00;99.90;;;;;;5052343;28;19913;-52
2023/01/01 07:49:31;;;;;;;;;;;14.00;99.90;;;;;;5052388;28;19919;-53
2023/01/01 07:51:57;;;;;;;;;;;13.90;99.90;;;;;;5052702;28;20374;-54
2023/01/01 07:54:23;;;;;;;;;;;13.80;99.90;;;;;;5052295;28;19912;-54
2023/01/01 07:56:48;;;;;;;;;;;13.80;99.90;;;;;;5052236;28;19909;-53
2023/01/01 07:59:14;;;;;;;;;;;13.80;99.90;;;;;;5052190;28;19913;-50
2023/01/01 08:01:39;;;;;;;;;;;13.70;99.90;;;;;;5052248;28;20103;-51
2023/01/01 08:04:05;;;;;;;;;;;13.80;99.90;;;;;;5052284;28;19908;-53
2023/01/01 08:06:30;;;;;;;;;;;13.70;99.90;;;;;;5052056;28;19915;-53
2023/01/01 08:08:56;;;;;;;;;;;13.80;99.90;;;;;;5052041;28;20013;-52
2023/01/01 08:11:22;;;;;;;;;;;13.90;99.90;;;;;;5052068;28;19908;-51
2023/01/01 08:13:47;;;;;;;;;;;13.90;99.90;;;;;;5052054;28;19908;-51
2023/01/01 08:16:13;;;;;;;;;;;13.90;99.90;;;;;;5051964;28;19948;-51
2023/01/01 08:18:38;;;;;;;;;;;13.90;99.90;;;;;;5051555;28;19916;-53
2023/01/01 08:21:04;;;;;;;;;;;13.90;99.90;;;;;;5052090;28;20011;-51
2023/01/01 08:23:30;;;;;;;;;;;14.00;99.90;;;;;;5051855;28;19905;-54
2023/01/01 08:25:59;;;;;;;;;;;13.90;99.90;;;;;;5051914;28;19935;-50
2023/01/01 08:28:25;;;;;;;;;;;14.00;99.90;;;;;;5051573;28;19954;-50
2023/01/01 08:30:51;;;;;;;;;;;14.00;99.90;;;;;;5051083;28;20421;-51
2023/01/01 08:33:16;;;;;;;;;;;13.90;99.90;;;;;;5051514;28;20258;-52
2023/01/01 08:35:42;;;;;;;;;;;13.90;99.90;;;;;;5051818;28;19916;-52
2023/01/01 08:38:11;;;;;;;;;;;14.00;99.90;;;;;;5051563;28;19944;-53
2023/01/01 08:40:36;;;;;;;;;;;14.00;99.90;;;;;;5051353;28;19909;-54
2023/01/01 08:43:02;;;;;;;;;;;14.00;99.90;;;;;;5051589;28;20007;-49
2023/01/01 08:45:27;;;;;;;;;;;14.00;99.90;;;;;;5051477;28;19908;-52
2023/01/01 08:47:53;;;;;;;;;;;14.00;99.90;;;;;;5051438;28;19913;-51
2023/01/01 08:50:19;;;;;;;;;;;14.00;99.90;;;;;;5051359;28;19909;-53
2023/01/01 08:52:44;;;;;;;;;;;14.10;99.90;;;;;;5051428;28;19912;-51
2023/01/01 08:55:10;;;;;;;;;;;14.00;99.90;;;;;;5051222;28;19916;-50
2023/01/01 08:57:35;;;;;;;;;;;14.00;99.90;;;;;;5051232;28;19909;-52
2023/01/01 09:00:01;;;;;;;;;;;14.00;99.90;;;;;;5051058;28;19909;-52
2023/01/01 09:02:27;;;;;;;;;;;14.00;99.90;;;;;;5051516;28;19909;-53
2023/01/01 09:04:52;;;;;;;;;;;13.90;99.90;;;;;;5051586;28;19909;-54
2023/01/01 09:07:18;;;;;;;;;;;13.90;99.90;;;;;;5051008;28;20392;-56
2023/01/01 09:09:44;;;;;;;;;;;13.90;99.90;;;;;;5050919;28;19909;-54
2023/01/01 09:12:12;;;;;;;;;;;13.90;99.90;;;;;;5051137;28;19924;-54
2023/01/01 09:14:37;;;;;;;;;;;13.90;99.90;;;;;;5051070;28;19924;-54
2023/01/01 09:17:03;;;;;;;;;;;14.00;99.90;;;;;;5050850;28;19909;-53
2023/01/01 09:19:29;;;;;;;;;;;13.90;99.90;;;;;;5050797;28;19917;-54
2023/01/01 09:21:54;;;;;;;;;;;14.00;99.90;;;;;;5050967;28;19913;-51
2023/01/01 09:24:20;;;;;;;;;;;14.00;99.90;;;;;;5050971;28;19909;-54
2023/01/01 09:26:46;;;;;;;;;;;14.00;99.90;;;;;;5050783;28;19962;-54
2023/01/01 09:29:11;;;;;;;;;;;14.00;99.90;;;;;;5050697;28;19913;-54
2023/01/01 09:31:37;;;;;;;;;;;14.10;99.90;;;;;;5050934;28;20289;-54
2023/01/01 09:34:02;;;;;;;;;;;14.00;99.90;;;;;;5051015;28;20088;-53
2023/01/01 09:36:30;;;;;;;;;;;14.10;99.90;;;;;;5050737;28;19977;-52
2023/01/01 09:38:56;;;;;;;;;;;14.00;99.90;;;;;;5050677;28;19916;-51
2023/01/01 09:41:25;;;;;;;;;;;14.10;99.90;;;;;;5050705;28;20277;-53
2023/01/01 09:43:55;;;;;;;;;;;14.00;99.90;;;;;;5053546;28;19992;-54
2023/01/01 09:46:22;;;;;;;;;;;14.10;99.90;;;;;;5054785;28;19995;-52
2023/01/01 09:48:54;;;;;;;;;;;14.10;99.90;;;;;;5054571;28;19912;-51
2023/01/01 09:51:20;;;;;;;;;;;14.10;99.90;;;;;;5054677;28;19909;-52
2023/01/01 09:53:51;;;;;;;;;;;14.10;99.90;;;;;;5054549;28;20326;-53
2023/01/01 09:56:24;;;;;;;;;;;14.10;99.90;;;;;;5054422;28;20284;-49
2023/01/01 09:58:50;;;;;;;;;;;14.10;99.90;;;;;;5054342;28;19931;-52
2023/01/01 10:01:32;;;;;;;;;;;14.10;99.90;;;;;;5054632;28;20365;-52
2023/01/01 10:03:59;;;;;;;;;;;14.10;99.90;;;;;;5054523;28;20012;-53
2023/01/01 10:06:29;;;;;;;;;;;14.10;99.90;;;;;;5054197;28;19908;-54
2023/01/01 10:09:03;;;;;;;;;;;14.20;99.90;;;;;;5054013;28;20301;-51
2023/01/01 10:11:42;;;;;;;;;;;14.20;99.90;;;;;;5054615;28;19953;-54
2023/01/01 10:14:26;;;;;;;;;;;14.20;99.90;;;;;;5053733;28;20273;-53
2023/01/01 10:16:54;;;;;;;;;;;14.20;99.90;;;;;;5054056;28;20420;-54
2023/01/01 10:19:33;;;;;;;;;;;14.20;99.90;;;;;;5054305;28;19909;-52
2023/01/01 10:22:19;;;;;;;;;;;14.20;99.90;;;;;;5054381;28;19908;-53
2023/01/01 10:24:48;;;;;;;;;;;14.20;99.90;;;;;;5053957;28;19909;-54
2023/01/01 10:27:43;;;;;;;;;;;14.20;99.90;;;;;;5054014;28;20025;-54
2023/01/01 10:30:16;;;;;;;;;;;14.20;99.90;;;;;;5036298;28;19939;-54
2023/01/01 10:32:46;;;;;;;;;;;14.30;99.90;;;;;;5054208;28;19913;-51
2023/01/01 10:35:13;;;;;;;;;;;14.30;99.90;;;;;;5053787;28;19917;-53
2023/01/01 10:37:39;;;;;;;;;;;14.30;99.90;;;;;;5053832;28;20003;-53
2023/01/01 10:40:12;;;;;;;;;;;14.30;99.90;;;;;;5053542;28;19909;-53
2023/01/01 10:42:38;;;;;;;;;;;14.40;99.90;;;;;;5053749;28;19913;-53
2023/01/01 10:45:04;;;;;;;;;;;14.30;99.90;;;;;;5053654;28;19913;-54
2023/01/01 10:47:30;;;;;;;;;;;14.40;99.90;;;;;;5052100;28;20365;-52
2023/01/01 10:49:55;;;;;;;;;;;14.30;99.90;;;;;;5053697;28;19909;-51
2023/01/01 10:52:26;;;;;;;;;;;14.30;99.90;;;;;;5053601;28;19916;-53
2023/01/01 10:54:51;;;;;;;;;;;14.30;99.90;;;;;;5052738;28;19919;-54
2023/01/01 10:57:32;;;;;;;;;;;14.30;99.90;;;;;;5053257;28;19921;-52
2023/01/01 11:00:16;;;;;;;;;;;14.40;99.90;;;;;;5053091;28;19909;-53
2023/01/01 11:02:42;;;;;;;;;;;14.40;99.90;;;;;;5053553;28;20047;-53
2023/01/01 11:05:12;;;;;;;;;;;14.40;99.90;;;;;;5053198;28;20007;-51
2023/01/01 11:07:39;;;;;;;;;;;14.50;99.90;;;;;;5053050;28;20323;-53
2023/01/01 11:10:06;;;;;;;;;;;14.60;99.90;;;;;;5053006;28;20054;-53
2023/01/01 11:12:35;;;;;;;;;;;14.60;99.90;;;;;;5053184;28;19908;-54
2023/01/01 11:15:01;;;;;;;;;;;14.70;99.90;;;;;;5053085;28;19924;-54
2023/01/01 11:17:34;;;;;;;;;;;14.70;99.90;;;;;;5053006;28;19909;-53
2023/01/01 11:20:00;;;;;;;;;;;14.70;99.90;;;;;;5052990;28;20351;-53
2023/01/01 11:22:32;;;;;;;;;;;14.80;99.90;;;;;;5052999;28;19915;-51
2023/01/01 11:24:59;;;;;;;;;;;14.80;99.90;;;;;;5052758;28;19909;-54
2023/01/01 11:27:25;;;;;;;;;;;14.70;99.90;;;;;;5052537;28;20397;-54
2023/01/01 11:29:53;;;;;;;;;;;14.60;99.90;;;;;;5052747;28;19916;-53
2023/01/01 11:32:26;;;;;;;;;;;14.60;99.90;;;;;;5052849;28;20038;-55
2023/01/01 11:34:57;;;;;;;;;;;14.60;99.90;;;;;;5052873;28;19909;-53
2023/01/01 11:37:25;;;;;;;;;;;14.60;99.90;;;;;;5052480;28;20003;-52
2023/01/01 11:39:51;;;;;;;;;;;14.60;99.90;;;;;;5051251;28;19915;-55
2023/01/01 11:42:21;;;;;;;;;;;14.60;99.90;;;;;;5052711;28;19904;-53
2023/01/01 11:44:49;;;;;;;;;;;14.50;99.90;;;;;;5052720;28;19916;-52
2023/01/01 11:47:23;;;;;;;;;;;14.50;99.90;;;;;;5052271;28;19952;-55
2023/01/01 11:49:54;;;;;;;;;;;14.60;99.90;;;;;;5052306;28;19916;-53
2023/01/01 11:52:46;;;;;;;;;;;14.50;99.90;;;;;;5052614;28;19909;-53
2023/01/01 11:55:31;;;;;;;;;;;14.50;99.90;;;;;;5048846;28;19919;-52
2023/01/01 11:57:59;;;;;;;;;;;14.60;99.90;;;;;;5050828;28;20424;-52
2023/01/01 12:00:27;;;;;;;;;;;14.60;99.90;;;;;;5052066;28;19913;-53
2023/01/01 12:03:11;;;;;;;;;;;14.60;99.90;;;;;;5052186;28;19908;-54
2023/01/01 12:05:44;;;;;;;;;;;14.60;99.90;;;;;;5052183;28;19916;-53
2023/01/01 12:08:13;;;;;;;;;;;14.50;99.90;;;;;;5051460;28;19935;-52
2023/01/01 12:11:01;;;;;;;;;;;14.50;99.90;;;;;;5051948;28;20003;-51
2023/01/01 12:13:29;;;;;;;;;;;14.50;99.90;;;;;;5014229;28;19931;-52
2023/01/01 12:16:18;;;;;;;;;;;14.60;99.90;;;;;;5052172;28;20010;-52
2023/01/01 12:18:56;;;;;;;;;;;14.70;99.90;;;;;;5051780;28;19935;-53
2023/01/01 12:21:26;;;;;;;;;;;14.60;99.90;;;;;;5052067;28;19967;-53
2023/01/01 12:23:51;;;;;;;;;;;14.70;99.90;;;;;;5051766;28;19908;-53
2023/01/01 12:26:25;;;;;;;;;;;14.70;99.90;;;;;;5051789;28;19908;-50
2023/01/01 12:28:57;;;;;;;;;;;14.70;99.90;;;;;;5051455;28;20357;-54
2023/01/01 12:31:29;;;;;;;;;;;14.60;99.90;;;;;;5051615;28;20005;-52
2023/01/01 12:34:14;;;;;;;;;;;14.60;99.90;;;;;;5050400;28;20288;-52
2023/01/01 12:37:12;;;;;;;;;;;14.60;99.90;;;;;;5051218;28;20408;-51
2023/01/01 12:39:56;;;;;;;;;;;14.60;99.90;;;;;;5007069;28;19931;-54
2023/01/01 12:42:29;;;;;;;;;;;14.60;99.90;;;;;;5051563;28;19916;-54
2023/01/01 12:45:04;;;;;;;;;;;14.60;99.90;;;;;;5051595;28;19912;-55
2023/01/01 12:47:35;;;;;;;;;;;14.50;99.90;;;;;;5051120;28;20006;-55
2023/01/01 12:50:02;;;;;;;;;;;14.50;99.90;;;;;;5051096;28;19956;-55
2023/01/01 12:52:28;;;;;;;;;;;14.50;99.90;;;;;;5051329;28;19923;-53
2023/01/01 12:54:59;;;;;;;;;;;14.50;99.90;;;;;;5051236;28;20347;-52
2023/01/01 12:57:31;;;;;;;;;;;14.50;99.90;;;;;;5051184;28;20343;-54
2023/01/01 12:59:59;;;;;;;;;;;14.50;99.90;;;;;;5051142;28;20375;-53
2023/01/01 13:02:26;;;;;;;;;;;14.50;99.90;;;;;;5051184;28;19959;-54
2023/01/01 13:04:55;;;;;;;;;;;14.50;99.90;;;;;;5051025;28;19912;-53
2023/01/01 13:07:24;;;;;;;;;;;14.50;99.90;;;;;;5050871;28;19912;-54
2023/01/01 13:09:50;;;;;;;;;;;14.50;99.90;;;;;;5049748;28;19909;-53
2023/01/01 13:12:17;;;;;;;;;;;14.50;99.90;;;;;;5051099;28;20374;-54
2023/01/01 13:14:48;;;;;;;;;;;14.50;99.90;;;;;;5051100;28;19916;-55
2023/01/01 13:17:28;;;;;;;;;;;14.40;99.90;;;;;;5050405;28;19959;-54
2023/01/01 13:19:58;;;;;;;;;;;14.50;99.90;;;;;;5051038;28;20270;-52
2023/01/01 13:22:26;;;;;;;;;;;14.50;99.90;;;;;;5051131;28;19915;-53
2023/01/01 13:25:21;;;;;;;;;;;14.50;99.90;;;;;;5051009;28;20563;-52
2023/01/01 13:28:02;;;;;;;;;;;14.50;99.90;;;;;;5033328;28;19939;-54
2023/01/01 13:30:33;;;;;;;;;;;14.50;99.90;;;;;;5050933;28;19912;-53
2023/01/01 13:33:22;;;;;;;;;;;14.50;99.90;;;;;;5051011;28;20266;-53
2023/01/01 13:36:06;;;;;;;;;;;14.40;99.90;;;;;;5050914;28;19909;-54
2023/01/01 13:38:43;;;;;;;;;;;14.30;99.90;;;;;;5050472;28;19908;-55
2023/01/01 13:41:24;;;;;;;;;;;14.40;99.90;;;;;;5050851;28;19940;-53
2023/01/01 13:43:50;;;;;;;;;;;14.40;99.90;;;;;;5050708;28;19915;-54
2023/01/01 13:46:17;;;;;;;;;;;14.30;99.90;;;;;;5050721;28;20284;-53
2023/01/01 13:48:55;;;;;;;;;;;14.30;99.90;;;;;;5050338;28;20368;-53
2023/01/01 13:51:29;;;;;;;;;;;14.30;99.90;;;;;;5050857;28;19926;-53
2023/01/01 13:54:04;;;;;;;;;;;14.30;99.90;;;;;;5050621;28;19913;-53
2023/01/01 13:56:45;;;;;;;;;;;14.30;99.90;;;;;;5050536;28;19912;-53
2023/01/01 13:59:23;;;;;;;;;;;14.30;99.90;;;;;;5050476;28;19942;-54
2023/01/01 14:01:52;;;;;;;;;;;14.20;99.90;;;;;;5050612;28;20004;-53
2023/01/01 14:04:39;;;;;;;;;;;14.20;99.90;;;;;;5050464;28;19908;-54
2023/01/01 14:07:14;;;;;;;;;;;14.10;99.90;;;;;;5050836;28;19913;-53
2023/01/01 14:09:40;;;;;;;;;;;14.10;99.90;;;;;;5050277;28;20312;-53
2023/01/01 14:12:13;;;;;;;;;;;14.10;99.90;;;;;;5050659;28;20007;-54
2023/01/01 14:14:40;;;;;;;;;;;14.10;99.90;;;;;;5050548;28;19909;-51
2023/01/01 14:17:06;;;;;;;;;;;14.10;99.90;;;;;;5050357;28;20317;-53
2023/01/01 14:19:32;;;;;;;;;;;14.10;99.90;;;;;;5050305;28;19908;-53
2023/01/01 14:21:57;;;;;;;;;;;14.00;99.90;;;;;;5050395;28;19912;-55
2023/01/01 14:24:24;;;;;;;;;;;14.00;99.90;;;;;;5050624;28;20008;-56
2023/01/01 14:26:50;;;;;;;;;;;14.00;99.90;;;;;;5050303;28;19909;-55
2023/01/01 14:29:23;;;;;;;;;;;13.90;99.90;;;;;;5050337;28;19939;-55
2023/01/01 14:31:48;;;;;;;;;;;13.90;99.90;;;;;;5053883;28;20023;-54
2023/01/01 14:34:20;;;;;;;;;;;13.90;99.90;;;;;;5053881;28;19914;-54